createdAt,value
2023-02-19T00:00:05.563Z,1.09
2023-02-19T00:02:41.934Z,1.10
2023-02-19T00:05:10.553Z,1.10
2023-02-19T00:07:39.299Z,1.10
2023-02-19T00:10:08.811Z,1.11
2023-02-19T00:12:37.767Z,1.11
2023-02-19T00:15:07.922Z,1.13
2023-02-19T00:17:36.602Z,1.14
2023-02-19T00:20:07.951Z,1.14
2023-02-19T00:22:36.592Z,1.14
2023-02-19T00:25:06.039Z,1.12
2023-02-19T00:27:35.238Z,1.12
2023-02-19T00:30:05.123Z,1.12
2023-02-19T00:32:34.468Z,1.11
2023-02-19T00:35:02.845Z,1.09
2023-02-19T00:37:32.750Z,1.09
2023-02-19T00:40:01.256Z,1.08
2023-02-19T00:42:30.329Z,1.08
2023-02-19T00:44:58.927Z,1.08
2023-02-19T00:47:27.504Z,1.08
2023-02-19T00:49:55.972Z,1.08
2023-02-19T00:52:24.623Z,1.07
2023-02-19T00:54:53.407Z,1.06
2023-02-19T00:57:22.341Z,1.06
2023-02-19T00:59:50.932Z,1.04
2023-02-19T01:02:20.158Z,1.03
2023-02-19T01:04:51.258Z,1.03
2023-02-19T01:07:19.947Z,1.03
2023-02-19T01:09:48.451Z,1.02
2023-02-19T01:12:17.664Z,1.01
2023-02-19T01:14:46.636Z,1.01
2023-02-19T01:17:16.433Z,1.02
2023-02-19T01:19:44.911Z,1.01
2023-02-19T01:22:13.653Z,1.02
2023-02-19T01:24:42.110Z,1.02
2023-02-19T01:27:10.572Z,1.02
2023-02-19T01:29:39.654Z,1.01
2023-02-19T01:32:08.603Z,1.01
2023-02-19T01:34:42.254Z,1.00
2023-02-19T01:37:12.381Z,1.00
2023-02-19T01:39:41.567Z,0.98
2023-02-19T01:42:14.612Z,0.96
2023-02-19T01:44:42.987Z,0.95
2023-02-19T01:47:12.170Z,0.95
2023-02-19T01:49:49.035Z,0.94
2023-02-19T01:52:32.850Z,0.94
2023-02-19T01:55:02.667Z,0.93
2023-02-19T01:57:35.132Z,0.94
2023-02-19T02:00:06.642Z,0.94
2023-02-19T02:02:43.010Z,0.96
2023-02-19T02:05:41.398Z,0.98
2023-02-19T02:08:30.171Z,0.99
2023-02-19T02:10:58.693Z,1.00
2023-02-19T02:13:27.242Z,1.00
2023-02-19T02:16:11.576Z,1.00
2023-02-19T02:18:57.092Z,1.02
2023-02-19T02:21:44.826Z,1.06
2023-02-19T02:24:27.742Z,1.06
2023-02-19T02:27:34.470Z,1.05
2023-02-19T02:30:37.736Z,1.05
2023-02-19T02:33:19.729Z,1.06
2023-02-19T02:35:57.327Z,1.08
2023-02-19T02:38:29.455Z,1.09
2023-02-19T02:40:57.893Z,1.10
2023-02-19T02:43:26.450Z,1.12
2023-02-19T02:45:55.986Z,1.12
2023-02-19T02:48:43.790Z,1.12
2023-02-19T02:51:25.066Z,1.13
2023-02-19T02:54:24.168Z,1.13
2023-02-19T02:56:52.644Z,1.14
2023-02-19T02:59:24.000Z,1.13
2023-02-19T03:02:11.278Z,1.14
2023-02-19T03:05:20.889Z,1.13
2023-02-19T03:07:59.617Z,1.13
2023-02-19T03:10:51.067Z,1.13
2023-02-19T03:13:53.541Z,1.14
2023-02-19T03:16:46.257Z,1.14
2023-02-19T03:19:22.144Z,1.13
2023-02-19T03:22:03.473Z,1.13
2023-02-19T03:24:51.321Z,1.12
2023-02-19T03:27:20.352Z,1.11
2023-02-19T03:29:50.512Z,1.11
2023-02-19T03:32:24.523Z,1.11
2023-02-19T03:35:03.815Z,1.11
2023-02-19T03:37:47.437Z,1.12
2023-02-19T03:40:17.335Z,1.13
2023-02-19T03:43:20.224Z,1.14
2023-02-19T03:45:55.174Z,1.15
2023-02-19T03:49:04.671Z,1.16
2023-02-19T03:51:45.173Z,1.15
2023-02-19T03:54:37.782Z,1.14
2023-02-19T03:57:08.978Z,1.14
2023-02-19T03:59:49.501Z,1.14
2023-02-19T04:02:32.347Z,1.15
2023-02-19T04:05:14.554Z,1.15
2023-02-19T04:07:46.287Z,1.15
2023-02-19T04:10:15.406Z,1.16
2023-02-19T04:13:09.012Z,1.17
2023-02-19T04:15:38.453Z,1.17
2023-02-19T04:18:12.820Z,1.18
2023-02-19T04:20:44.014Z,1.18
2023-02-19T04:23:13.102Z,1.18
2023-02-19T04:25:42.710Z,1.18
2023-02-19T04:28:11.575Z,1.17
2023-02-19T04:30:40.147Z,1.17
2023-02-19T04:33:11.397Z,1.17
2023-02-19T04:35:40.008Z,1.17
2023-02-19T04:38:08.850Z,1.18
2023-02-19T04:40:37.837Z,1.19
2023-02-19T04:43:06.989Z,1.19
2023-02-19T04:45:37.880Z,1.20
2023-02-19T04:48:06.257Z,1.20
2023-02-19T04:50:34.826Z,1.21
2023-02-19T04:53:04.015Z,1.23
2023-02-19T04:55:37.122Z,1.26
2023-02-19T04:58:05.524Z,1.26
2023-02-19T05:00:34.567Z,1.29
2023-02-19T05:03:03.026Z,1.32
2023-02-19T05:05:31.816Z,1.34
2023-02-19T05:08:05.433Z,1.37
2023-02-19T05:10:34.925Z,1.39
2023-02-19T05:13:03.299Z,1.42
2023-02-19T05:15:33.555Z,1.45
2023-02-19T05:18:02.018Z,1.49
2023-02-19T05:20:30.484Z,1.51
2023-02-19T05:22:59.205Z,1.54
2023-02-19T05:25:27.669Z,1.57
2023-02-19T05:28:16.103Z,1.61
2023-02-19T05:30:51.809Z,1.65
2023-02-19T05:33:21.053Z,1.71
2023-02-19T05:35:51.333Z,1.76
2023-02-19T05:38:20.469Z,1.83
2023-02-19T05:40:49.166Z,1.89
2023-02-19T05:43:38.665Z,1.99
2023-02-19T05:46:07.653Z,2.09
2023-02-19T05:48:36.627Z,2.21
2023-02-19T05:51:15.948Z,2.33
2023-02-19T05:53:45.182Z,2.47
2023-02-19T05:56:37.390Z,2.59
2023-02-19T05:59:08.747Z,2.72
2023-02-19T06:01:38.035Z,2.80
2023-02-19T06:04:06.674Z,2.87
2023-02-19T06:06:35.373Z,2.91
2023-02-19T06:09:05.127Z,2.96
2023-02-19T06:11:33.708Z,2.99
2023-02-19T06:14:02.146Z,3.01
2023-02-19T06:16:32.400Z,3.01
2023-02-19T06:19:04.232Z,3.02
2023-02-19T06:21:33.821Z,3.02
2023-02-19T06:24:08.010Z,3.03
2023-02-19T06:26:37.512Z,3.07
2023-02-19T06:29:06.138Z,3.09
2023-02-19T06:31:35.132Z,3.12
2023-02-19T06:34:05.203Z,3.13
2023-02-19T06:36:34.567Z,3.14
2023-02-19T06:39:04.039Z,3.13
2023-02-19T06:41:33.527Z,3.17
2023-02-19T06:44:02.325Z,3.22
2023-02-19T06:46:31.342Z,3.30
2023-02-19T06:49:00.196Z,3.40
2023-02-19T06:51:29.949Z,3.53
2023-02-19T06:54:02.694Z,3.68
2023-02-19T06:56:33.523Z,3.86
2023-02-19T06:59:03.164Z,3.98
2023-02-19T07:01:32.517Z,4.00
2023-02-19T07:04:02.553Z,4.01
2023-02-19T07:06:31.533Z,4.00
2023-02-19T07:09:00.432Z,4.02
2023-02-19T07:11:31.863Z,4.07
2023-02-19T07:14:01.569Z,4.15
2023-02-19T07:16:30.721Z,4.30
2023-02-19T07:19:00.132Z,4.43
2023-02-19T07:21:32.238Z,4.57
2023-02-19T07:24:01.533Z,4.68
2023-02-19T07:26:34.727Z,4.72
2023-02-19T07:29:03.158Z,4.70
2023-02-19T07:31:31.859Z,4.71
2023-02-19T07:34:01.013Z,4.84
2023-02-19T07:36:30.014Z,5.12
2023-02-19T07:39:00.513Z,5.53
2023-02-19T07:41:28.808Z,6.01
2023-02-19T07:43:59.171Z,6.47
2023-02-19T07:46:28.153Z,6.87
2023-02-19T07:49:00.125Z,7.27
2023-02-19T07:51:30.206Z,7.70
2023-02-19T07:54:01.649Z,8.14
2023-02-19T07:56:30.639Z,8.49
2023-02-19T07:59:00.555Z,8.73
2023-02-19T08:01:48.175Z,9.02
2023-02-19T08:04:16.683Z,9.27
2023-02-19T08:06:45.257Z,9.48
2023-02-19T08:09:14.445Z,9.72
2023-02-19T08:12:01.870Z,9.94
2023-02-19T08:14:31.319Z,10.10
2023-02-19T08:17:00.227Z,10.18
2023-02-19T08:19:29.583Z,10.26
2023-02-19T08:21:58.381Z,10.36
2023-02-19T08:24:29.241Z,10.59
2023-02-19T08:26:57.941Z,10.83
2023-02-19T08:29:26.611Z,11.06
2023-02-19T08:31:55.172Z,11.27
2023-02-19T08:34:23.647Z,11.38
2023-02-19T08:36:53.234Z,11.34
2023-02-19T08:39:22.338Z,11.25
2023-02-19T08:41:51.732Z,11.19
2023-02-19T08:44:20.215Z,10.92
2023-02-19T08:46:54.325Z,10.52
2023-02-19T08:49:27.069Z,10.30
2023-02-19T08:51:55.685Z,10.16
2023-02-19T08:54:24.220Z,10.10
2023-02-19T08:56:52.793Z,10.10
2023-02-19T08:59:21.265Z,10.18
2023-02-19T09:01:49.844Z,10.36
2023-02-19T09:04:18.483Z,10.66
2023-02-19T09:06:47.292Z,10.96
2023-02-19T09:09:17.536Z,11.29
2023-02-19T09:11:49.064Z,11.59
2023-02-19T09:14:18.331Z,11.83
2023-02-19T09:16:46.846Z,12.01
2023-02-19T09:19:15.330Z,11.96
2023-02-19T09:21:43.807Z,11.69
2023-02-19T09:24:12.298Z,11.30
2023-02-19T09:26:41.902Z,11.05
2023-02-19T09:29:10.686Z,11.03
2023-02-19T09:31:39.346Z,11.18
2023-02-19T09:34:08.162Z,11.44
2023-02-19T09:36:36.912Z,11.71
2023-02-19T09:39:07.848Z,11.88
2023-02-19T09:41:45.398Z,12.06
2023-02-19T09:44:16.958Z,12.27
2023-02-19T09:46:47.673Z,12.48
2023-02-19T09:49:20.120Z,12.68
2023-02-19T09:51:54.472Z,12.80
2023-02-19T09:54:26.692Z,12.80
2023-02-19T09:56:55.525Z,12.70
2023-02-19T09:59:27.508Z,12.63
2023-02-19T10:02:14.761Z,12.57
2023-02-19T10:04:44.434Z,12.42
2023-02-19T10:07:14.646Z,12.21
2023-02-19T10:09:45.581Z,12.08
2023-02-19T10:12:28.651Z,12.04
2023-02-19T10:15:06.265Z,12.04
2023-02-19T10:17:37.853Z,12.01
2023-02-19T10:20:07.132Z,11.99
2023-02-19T10:22:36.365Z,11.91
2023-02-19T10:25:05.333Z,11.87
2023-02-19T10:27:33.813Z,11.82
2023-02-19T10:30:02.299Z,11.76
2023-02-19T10:32:31.336Z,11.65
2023-02-19T10:35:12.281Z,11.57
2023-02-19T10:37:44.687Z,11.50
2023-02-19T10:40:19.259Z,11.50
2023-02-19T10:42:49.688Z,11.52
2023-02-19T10:45:50.599Z,11.56
2023-02-19T10:48:29.143Z,11.55
2023-02-19T10:51:05.118Z,11.49
2023-02-19T10:53:47.516Z,11.28
2023-02-19T10:56:22.851Z,10.94
2023-02-19T10:58:51.640Z,10.57
2023-02-19T11:01:25.769Z,10.26
2023-02-19T11:04:15.145Z,10.22
2023-02-19T11:06:43.589Z,10.36
2023-02-19T11:09:30.535Z,10.48
2023-02-19T11:12:05.814Z,10.50
2023-02-19T11:14:34.494Z,10.32
2023-02-19T11:17:04.923Z,9.95
2023-02-19T11:19:40.500Z,9.49
2023-02-19T11:22:29.491Z,9.19
2023-02-19T11:25:25.801Z,9.10
2023-02-19T11:28:08.092Z,9.16
2023-02-19T11:30:41.522Z,9.25
2023-02-19T11:33:25.050Z,9.38
2023-02-19T11:36:15.379Z,9.62
2023-02-19T11:38:44.806Z,9.81
2023-02-19T11:41:40.983Z,9.99
2023-02-19T11:44:31.179Z,10.10
2023-02-19T11:47:00.292Z,10.10
2023-02-19T11:49:59.078Z,10.14
2023-02-19T11:53:02.938Z,10.12
2023-02-19T11:55:59.105Z,10.03
2023-02-19T11:58:43.386Z,9.96
2023-02-19T12:01:17.497Z,9.86
2023-02-19T12:04:25.645Z,9.82
2023-02-19T12:07:18.349Z,9.72
2023-02-19T12:10:17.236Z,9.64
2023-02-19T12:13:24.832Z,9.59
2023-02-19T12:16:05.961Z,9.48
2023-02-19T12:18:52.308Z,9.42
2023-02-19T12:21:55.804Z,9.28
2023-02-19T12:24:39.075Z,9.13
2023-02-19T12:27:27.265Z,9.12
2023-02-19T12:30:48.443Z,9.15
2023-02-19T12:33:44.874Z,9.19
2023-02-19T12:36:44.435Z,9.24
2023-02-19T12:39:18.863Z,9.20
2023-02-19T12:42:26.700Z,9.03
2023-02-19T12:44:57.951Z,8.76
2023-02-19T12:47:38.589Z,8.53
2023-02-19T12:50:21.958Z,8.33
2023-02-19T12:52:53.877Z,8.22
2023-02-19T12:55:23.377Z,8.07
2023-02-19T12:57:58.885Z,7.95
2023-02-19T13:00:32.417Z,7.87
2023-02-19T13:03:21.043Z,7.79
2023-02-19T13:05:58.803Z,7.69
2023-02-19T13:08:48.788Z,7.57
2023-02-19T13:11:30.580Z,7.42
2023-02-19T13:14:35.696Z,7.28
2023-02-19T13:17:25.979Z,7.04
2023-02-19T13:20:15.963Z,6.82
2023-02-19T13:23:06.049Z,6.69
2023-02-19T13:25:44.446Z,6.57
2023-02-19T13:28:26.107Z,6.46
2023-02-19T13:31:04.829Z,6.41
2023-02-19T13:33:53.571Z,6.37
2023-02-19T13:36:31.277Z,6.33
2023-02-19T13:39:00.010Z,6.32
2023-02-19T13:41:56.001Z,6.28
2023-02-19T13:44:34.208Z,6.20
2023-02-19T13:47:06.291Z,6.02
2023-02-19T13:49:38.533Z,5.80
2023-02-19T13:52:39.903Z,5.59
2023-02-19T13:55:49.834Z,5.40
2023-02-19T13:58:34.969Z,5.26
2023-02-19T14:01:07.702Z,5.18
2023-02-19T14:03:40.775Z,5.12
2023-02-19T14:06:09.967Z,5.10
2023-02-19T14:08:57.865Z,5.04
2023-02-19T14:11:41.627Z,4.96
2023-02-19T14:14:26.668Z,4.85
2023-02-19T14:16:57.096Z,4.74
2023-02-19T14:19:42.710Z,4.62
2023-02-19T14:22:48.898Z,4.50
2023-02-19T14:25:59.615Z,4.36
2023-02-19T14:28:30.338Z,4.19
2023-02-19T14:31:18.568Z,4.05
2023-02-19T14:34:14.839Z,3.92
2023-02-19T14:36:48.759Z,3.77
2023-02-19T14:39:20.925Z,3.61
2023-02-19T14:41:54.770Z,3.46
2023-02-19T14:44:25.883Z,3.31
2023-02-19T14:46:58.342Z,3.17
2023-02-19T14:49:47.181Z,3.04
2023-02-19T14:52:32.281Z,2.91
2023-02-19T14:55:02.094Z,2.79
2023-02-19T14:57:45.751Z,2.67
2023-02-19T15:00:23.254Z,2.53
2023-02-19T15:02:53.411Z,2.42
2023-02-19T15:05:24.845Z,2.35
2023-02-19T15:07:54.161Z,2.27
2023-02-19T15:10:23.056Z,2.20
2023-02-19T15:12:56.205Z,2.14
2023-02-19T15:15:27.226Z,2.07
2023-02-19T15:17:56.796Z,2.00
2023-02-19T15:20:27.218Z,1.92
2023-02-19T15:22:57.238Z,1.86
2023-02-19T15:25:33.915Z,1.80
2023-02-19T15:28:24.111Z,1.76
2023-02-19T15:30:58.875Z,1.71
2023-02-19T15:33:28.078Z,1.65
2023-02-19T15:36:11.518Z,1.62
2023-02-19T15:38:40.168Z,1.60
2023-02-19T15:41:19.028Z,1.59
2023-02-19T15:43:54.044Z,1.58
2023-02-19T15:46:23.233Z,1.57
2023-02-19T15:49:06.945Z,1.55
2023-02-19T15:51:41.038Z,1.54
2023-02-19T15:54:44.052Z,1.56
2023-02-19T15:57:16.535Z,1.56
2023-02-19T15:59:48.502Z,1.55
2023-02-19T16:02:17.070Z,1.53
2023-02-19T16:04:46.150Z,1.51
2023-02-19T16:07:28.784Z,1.49
2023-02-19T16:10:23.350Z,1.44
2023-02-19T16:12:56.665Z,1.39
2023-02-19T16:15:26.024Z,1.34
2023-02-19T16:17:55.127Z,1.30
2023-02-19T16:20:29.235Z,1.26
2023-02-19T16:23:19.184Z,1.23
2023-02-19T16:25:47.549Z,1.18
2023-02-19T16:28:23.735Z,1.16
2023-02-19T16:31:12.996Z,1.15
2023-02-19T16:33:48.774Z,1.15
2023-02-19T16:36:21.825Z,1.16
2023-02-19T16:39:08.548Z,1.16
2023-02-19T16:41:40.229Z,1.15
2023-02-19T16:44:39.826Z,1.16
2023-02-19T16:47:15.685Z,1.15
2023-02-19T16:49:44.468Z,1.14
2023-02-19T16:52:14.178Z,1.10
2023-02-19T16:54:43.460Z,1.09
2023-02-19T16:57:12.136Z,1.08
2023-02-19T16:59:40.611Z,1.08
2023-02-19T17:02:11.065Z,1.07
2023-02-19T17:04:40.090Z,1.06
2023-02-19T17:07:15.778Z,1.06
2023-02-19T17:09:44.367Z,1.05
2023-02-19T17:12:14.584Z,1.04
2023-02-19T17:14:44.597Z,1.03
2023-02-19T17:17:13.735Z,1.02
2023-02-19T17:19:42.320Z,1.02
2023-02-19T17:22:17.281Z,1.03
2023-02-19T17:24:48.555Z,1.05
2023-02-19T17:27:17.266Z,1.08
2023-02-19T17:29:46.058Z,1.11
2023-02-19T17:32:14.768Z,1.14
2023-02-19T17:34:43.299Z,1.16
2023-02-19T17:37:12.437Z,1.17
2023-02-19T17:39:40.983Z,1.16
2023-02-19T17:42:09.438Z,1.17
2023-02-19T17:44:38.143Z,1.16
2023-02-19T17:47:07.041Z,1.16
2023-02-19T17:49:36.583Z,1.15
2023-02-19T17:52:05.302Z,1.16
2023-02-19T17:54:34.642Z,1.17
2023-02-19T17:57:03.224Z,1.17
2023-02-19T17:59:31.997Z,1.15
2023-02-19T18:02:02.226Z,1.12
2023-02-19T18:04:31.746Z,1.07
2023-02-19T18:07:00.310Z,1.00
2023-02-19T18:09:29.152Z,0.92
2023-02-19T18:11:57.532Z,0.83
2023-02-19T18:14:28.422Z,0.73
2023-02-19T18:16:57.258Z,0.64
2023-02-19T18:19:26.199Z,0.57
2023-02-19T18:21:54.936Z,0.53
2023-02-19T18:24:23.528Z,0.49
2023-02-19T18:26:55.474Z,0.45
2023-02-19T18:29:26.196Z,0.44
2023-02-19T18:31:57.817Z,0.43
2023-02-19T18:34:26.504Z,0.42
2023-02-19T18:36:54.999Z,0.41
2023-02-19T18:39:25.007Z,0.42
2023-02-19T18:41:53.542Z,0.43
2023-02-19T18:44:23.133Z,0.45
2023-02-19T18:46:51.572Z,0.46
2023-02-19T18:49:20.184Z,0.48
2023-02-19T18:51:48.689Z,0.49
2023-02-19T18:54:17.749Z,0.50
2023-02-19T18:56:46.989Z,0.48
2023-02-19T18:59:15.929Z,0.46
2023-02-19T19:01:44.477Z,0.43
2023-02-19T19:04:14.347Z,0.40
2023-02-19T19:06:43.929Z,0.34
2023-02-19T19:09:12.409Z,0.29
2023-02-19T19:11:41.923Z,0.24
2023-02-19T19:14:10.807Z,0.19
2023-02-19T19:16:40.870Z,0.14
2023-02-19T19:19:09.746Z,0.10
2023-02-19T19:21:38.509Z,0.06
2023-02-19T19:24:07.463Z,0.05
2023-02-19T19:26:36.084Z,0.03
2023-02-19T19:29:04.767Z,0.02
2023-02-19T19:31:34.946Z,0.01
2023-02-19T19:34:04.094Z,0.00
2023-02-19T19:36:33.144Z,-0.00
2023-02-19T19:39:02.333Z,-0.02
2023-02-19T19:41:31.668Z,-0.02
2023-02-19T19:44:05.645Z,0.01
2023-02-19T19:46:34.866Z,0.01
2023-02-19T19:49:05.931Z,0.05
2023-02-19T19:51:36.217Z,0.09
2023-02-19T19:54:05.276Z,0.13
2023-02-19T19:56:40.629Z,0.18
2023-02-19T19:59:13.202Z,0.21
2023-02-19T20:02:08.266Z,0.24
2023-02-19T20:04:37.263Z,0.30
2023-02-19T20:07:06.402Z,0.35
2023-02-19T20:09:37.303Z,0.40
2023-02-19T20:12:06.998Z,0.44
2023-02-19T20:14:35.587Z,0.48
2023-02-19T20:17:09.815Z,0.52
2023-02-19T20:19:39.658Z,0.56
2023-02-19T20:22:08.320Z,0.57
2023-02-19T20:24:37.093Z,0.58
2023-02-19T20:27:05.599Z,0.59
2023-02-19T20:29:34.778Z,0.60
2023-02-19T20:32:03.997Z,0.62
2023-02-19T20:34:33.938Z,0.62
2023-02-19T20:37:02.752Z,0.62
2023-02-19T20:39:32.076Z,0.61
2023-02-19T20:42:00.960Z,0.61
2023-02-19T20:44:32.144Z,0.63
2023-02-19T20:47:00.820Z,0.65
2023-02-19T20:49:30.650Z,0.68
2023-02-19T20:52:01.259Z,0.72
2023-02-19T20:54:32.050Z,0.76
2023-02-19T20:57:02.707Z,0.81
2023-02-19T20:59:35.344Z,0.84
2023-02-19T21:02:06.667Z,0.88
2023-02-19T21:04:37.771Z,0.93
2023-02-19T21:07:07.294Z,0.96
2023-02-19T21:09:36.052Z,1.00
2023-02-19T21:12:05.542Z,1.02
2023-02-19T21:14:37.192Z,1.06
2023-02-19T21:17:06.796Z,1.08
2023-02-19T21:19:40.437Z,1.10
2023-02-19T21:22:09.011Z,1.12
2023-02-19T21:24:37.806Z,1.13
2023-02-19T21:27:06.720Z,1.14
2023-02-19T21:29:35.075Z,1.15
2023-02-19T21:32:03.689Z,1.15
2023-02-19T21:34:32.248Z,1.13
2023-02-19T21:37:02.152Z,1.13
2023-02-19T21:39:32.694Z,1.14
2023-02-19T21:42:03.936Z,1.13
2023-02-19T21:44:32.933Z,1.14
2023-02-19T21:47:02.918Z,1.13
2023-02-19T21:49:31.937Z,1.13
2023-02-19T21:52:01.439Z,1.12
2023-02-19T21:54:30.228Z,1.12
2023-02-19T21:57:01.692Z,1.13
2023-02-19T21:59:30.133Z,1.11
2023-02-19T22:01:58.851Z,1.11
2023-02-19T22:04:27.978Z,1.09
2023-02-19T22:06:56.909Z,1.07
2023-02-19T22:09:26.477Z,1.06
2023-02-19T22:11:55.058Z,1.06
2023-02-19T22:14:23.433Z,1.04
2023-02-19T22:16:52.430Z,1.04
2023-02-19T22:19:20.977Z,1.02
2023-02-19T22:21:49.594Z,1.02
2023-02-19T22:24:20.174Z,1.01
2023-02-19T22:26:50.818Z,1.01
2023-02-19T22:29:19.461Z,1.02
2023-02-19T22:31:49.932Z,1.02
2023-02-19T22:34:18.433Z,0.99
2023-02-19T22:36:48.877Z,0.96
2023-02-19T22:39:37.329Z,0.92
2023-02-19T22:42:06.524Z,0.88
2023-02-19T22:44:37.055Z,0.86
2023-02-19T22:47:05.641Z,0.85
2023-02-19T22:49:37.323Z,0.83
2023-02-19T22:52:08.115Z,0.82
2023-02-19T22:54:37.134Z,0.80
2023-02-19T22:57:05.808Z,0.80
2023-02-19T22:59:34.571Z,0.80
2023-02-19T23:02:02.950Z,0.79
2023-02-19T23:04:31.987Z,0.79
2023-02-19T23:07:00.661Z,0.78
2023-02-19T23:09:29.925Z,0.76
2023-02-19T23:12:02.397Z,0.76
2023-02-19T23:14:32.868Z,0.75
2023-02-19T23:17:01.631Z,0.74
2023-02-19T23:19:32.837Z,0.72
2023-02-19T23:22:02.035Z,0.69
2023-02-19T23:24:31.022Z,0.67
2023-02-19T23:27:00.826Z,0.66
2023-02-19T23:29:31.056Z,0.63
2023-02-19T23:32:00.534Z,0.62
2023-02-19T23:34:29.730Z,0.61
2023-02-19T23:37:02.812Z,0.59
2023-02-19T23:39:32.253Z,0.56
2023-02-19T23:42:02.439Z,0.54
2023-02-19T23:44:31.531Z,0.51
2023-02-19T23:47:00.121Z,0.47
2023-02-19T23:49:28.737Z,0.44
2023-02-19T23:51:57.112Z,0.41
2023-02-19T23:54:26.188Z,0.38
2023-02-19T23:56:55.680Z,0.34
2023-02-19T23:59:24.153Z,0.30
